Time;durP1;ratioP1;P1;durP2;ratioP2;P2;SDS_P1;SDS_P2;PMS_P1;PMS_P2;Temp;Humidity;BMP_temperature;BMP_pressure;BME280_temperature;BME280_humidity;BME280_pressure;Samples;Min_cycle;Max_cycle;Signal;HPM_P1;HPM_P2
2023/05/30 00:00:33;;;;;;;8.00;1.80;;;10.40;99.90;;;;;;4967115;28;20161;-61
2023/05/30 00:03:00;;;;;;;4.53;1.55;;;10.30;99.90;;;;;;4970556;28;20128;-64
2023/05/30 00:05:27;;;;;;;2.90;1.60;;;10.30;99.90;;;;;;4970188;28;20062;-64
2023/05/30 00:07:55;;;;;;;6.82;1.90;;;10.30;99.90;;;;;;4970803;28;20035;-69
2023/05/30 00:10:22;;;;;;;1.52;1.10;;;10.30;99.90;;;;;;4970225;28;20086;-61
2023/05/30 00:12:49;;;;;;;3.67;1.60;;;10.40;99.90;;;;;;4970923;28;20082;-68
2023/05/30 00:15:18;;;;;;;3.40;2.15;;;10.30;99.90;;;;;;4967189;28;20156;-67
2023/05/30 00:17:45;;;;;;;5.63;1.60;;;10.30;99.90;;;;;;4970213;28;20046;-68
2023/05/30 00:20:12;;;;;;;3.15;1.23;;;10.30;99.90;;;;;;4967318;28;20046;-62
2023/05/30 00:22:41;;;;;;;2.67;1.27;;;10.20;99.90;;;;;;4969597;28;20460;-63
2023/05/30 00:25:09;;;;;;;3.22;1.85;;;10.20;99.90;;;;;;4969651;28;20074;-60
2023/05/30 00:27:37;;;;;;;3.95;1.05;;;10.10;99.90;;;;;;4967102;28;20062;-67
2023/05/30 00:30:04;;;;;;;2.65;1.55;;;10.10;99.90;;;;;;4968626;28;20047;-62
2023/05/30 00:32:33;;;;;;;1.90;1.30;;;10.10;99.90;;;;;;4966162;28;20058;-61
2023/05/30 00:35:00;;;;;;;3.80;1.65;;;10.10;99.90;;;;;;4963057;28;20058;-70
2023/05/30 00:37:32;;;;;;;5.65;2.17;;;10.20;99.90;;;;;;4968935;28;20508;-61
2023/05/30 00:39:59;;;;;;;2.33;1.95;;;10.30;99.90;;;;;;4965192;28;20177;-65
2023/05/30 00:42:27;;;;;;;2.38;1.70;;;10.40;99.90;;;;;;4964645;28;20061;-61
2023/05/30 00:44:54;;;;;;;1.48;0.95;;;10.50;99.90;;;;;;4953505;28;20089;-70
2023/05/30 00:47:21;;;;;;;6.38;1.55;;;10.50;99.90;;;;;;4966975;28;20082;-61
2023/05/30 00:49:51;;;;;;;5.22;1.58;;;10.50;99.90;;;;;;4965777;28;20085;-60
2023/05/30 00:52:19;;;;;;;2.78;0.85;;;10.50;99.90;;;;;;4965226;28;20050;-65
2023/05/30 00:54:47;;;;;;;3.78;1.50;;;10.50;99.90;;;;;;4964886;28;20209;-65
2023/05/30 00:57:15;;;;;;;1.45;0.82;;;10.50;99.90;;;;;;4964811;28;20143;-63
2023/05/30 00:59:44;;;;;;;3.80;1.40;;;10.50;99.90;;;;;;4965830;28;20059;-61
2023/05/30 01:02:11;;;;;;;1.88;1.05;;;10.50;99.90;;;;;;4960612;28;20055;-63
2023/05/30 01:04:38;;;;;;;1.73;1.17;;;10.50;99.90;;;;;;4965889;28;20054;-64
2023/05/30 01:07:06;;;;;;;2.65;1.42;;;10.50;99.90;;;;;;4964201;28;20496;-61
2023/05/30 01:09:33;;;;;;;5.53;1.20;;;10.50;99.90;;;;;;4963984;28;20125;-72
2023/05/30 01:12:20;;;;;;;3.15;1.48;;;10.40;99.90;;;;;;4963781;28;20079;-61
2023/05/30 01:15:03;;;;;;;2.15;1.10;;;10.30;99.90;;;;;;4980875;28;20113;-68
2023/05/30 01:17:47;;;;;;;2.60;1.02;;;10.30;99.90;;;;;;4962921;28;20077;-63
2023/05/30 01:20:18;;;;;;;4.15;0.98;;;10.30;99.90;;;;;;4962225;28;20110;-63
2023/05/30 01:23:05;;;;;;;3.30;1.75;;;10.20;99.90;;;;;;4967130;28;20477;-65
2023/05/30 01:25:54;;;;;;;1.77;1.00;;;10.20;99.90;;;;;;4964950;28;20063;-63
2023/05/30 01:28:23;;;;;;;3.30;1.27;;;10.10;99.90;;;;;;4964198;28;20885;-64
2023/05/30 01:30:53;;;;;;;2.88;0.90;;;10.00;99.90;;;;;;4963117;28;20620;-65
2023/05/30 01:33:22;;;;;;;3.08;1.10;;;9.80;99.90;;;;;;4964896;28;20047;-64
2023/05/30 01:35:51;;;;;;;3.05;1.20;;;9.70;99.90;;;;;;4961597;28;20524;-65
2023/05/30 01:38:20;;;;;;;3.97;1.52;;;9.60;99.90;;;;;;4954116;28;20058;-65
2023/05/30 01:40:53;;;;;;;4.60;1.40;;;9.50;99.90;;;;;;4965354;28;20544;-65
2023/05/30 01:43:48;;;;;;;3.60;1.33;;;9.50;99.90;;;;;;4964144;28;20050;-63
2023/05/30 01:46:50;;;;;;;3.45;1.00;;;9.40;99.90;;;;;;4979341;28;20059;-59
2023/05/30 01:49:23;;;;;;;3.22;1.23;;;9.40;99.90;;;;;;4972026;28;20098;-63
2023/05/30 01:52:11;;;;;;;2.30;0.93;;;9.30;99.90;;;;;;4981883;28;20113;-63
2023/05/30 01:54:41;;;;;;;4.65;0.98;;;9.30;99.90;;;;;;4964949;28;20051;-60
2023/05/30 01:57:09;;;;;;;;;;;9.20;99.90;;;;;;4964598;28;20193;-66
2023/05/30 01:59:38;;;;;;;4.80;1.27;;;9.20;99.90;;;;;;4979905;28;19933;-60
2023/05/30 02:02:06;;;;;;;4.50;1.40;;;9.10;99.90;;;;;;4963315;28;20085;-68
2023/05/30 02:04:33;;;;;;;2.83;1.33;;;9.10;99.90;;;;;;4960669;28;20057;-63
2023/05/30 02:07:01;;;;;;;2.92;1.38;;;9.00;99.90;;;;;;4962601;28;20152;-61
2023/05/30 02:09:28;;;;;;;1.63;1.10;;;9.00;99.90;;;;;;4972647;28;20059;-66
2023/05/30 02:11:55;;;;;;;2.45;1.70;;;9.00;99.90;;;;;;4957438;28;20194;-66
2023/05/30 02:14:22;;;;;;;5.97;2.03;;;9.00;99.90;;;;;;4962114;28;20584;-65
2023/05/30 02:16:49;;;;;;;2.13;1.13;;;9.00;99.90;;;;;;4964748;28;20583;-65
2023/05/30 02:19:18;;;;;;;6.63;1.20;;;9.10;99.90;;;;;;4978235;28;20043;-64
2023/05/30 02:21:45;;;;;;;1.63;1.15;;;9.20;99.90;;;;;;4966081;28;20056;-63
2023/05/30 02:24:12;;;;;;;1.20;1.10;;;9.10;99.90;;;;;;4962048;28;20054;-68
2023/05/30 02:26:39;;;;;;;6.30;1.58;;;9.10;99.90;;;;;;4962831;28;20043;-66
2023/05/30 02:29:06;;;;;;;3.00;1.40;;;9.10;99.90;;;;;;4959871;28;20114;-68
2023/05/30 02:31:33;;;;;;;3.00;1.42;;;9.10;99.90;;;;;;4963722;28;20055;-63
2023/05/30 02:34:00;;;;;;;2.80;1.48;;;9.00;99.90;;;;;;4966409;28;20077;-65
2023/05/30 02:36:27;;;;;;;7.30;1.88;;;9.00;99.90;;;;;;4975312;28;20058;-63
2023/05/30 02:38:54;;;;;;;2.05;1.70;;;9.00;99.90;;;;;;4965046;28;20051;-69
2023/05/30 02:41:23;;;;;;;5.15;2.42;;;9.00;99.90;;;;;;4962522;28;20795;-64
2023/05/30 02:43:50;;;;;;;3.10;1.52;;;9.10;99.90;;;;;;4978608;28;20133;-62
2023/05/30 02:46:17;;;;;;;3.25;1.40;;;9.20;99.90;;;;;;4953593;28;20050;-63
2023/05/30 02:48:44;;;;;;;5.65;1.88;;;9.40;99.90;;;;;;4978493;28;20118;-62
2023/05/30 02:51:11;;;;;;;3.53;2.00;;;9.60;99.90;;;;;;4962222;28;20748;-62
2023/05/30 02:53:40;;;;;;;7.55;1.70;;;9.90;99.90;;;;;;4962673;28;20050;-67
2023/05/30 02:56:07;;;;;;;1.45;1.35;;;10.00;99.90;;;;;;4975613;28;20049;-63
2023/05/30 02:58:37;;;;;;;4.07;1.27;;;10.10;99.90;;;;;;4964909;28;20047;-63
2023/05/30 03:01:12;;;;;;;3.95;1.98;;;10.20;99.90;;;;;;4961294;28;20387;-63
2023/05/30 03:03:41;;;;;;;2.28;1.10;;;10.30;99.90;;;;;;4961254;28;20061;-69
2023/05/30 03:06:21;;;;;;;4.05;2.47;;;10.40;99.90;;;;;;4950036;28;20065;-65
2023/05/30 03:09:07;;;;;;;2.35;1.98;;;10.50;99.90;;;;;;4963268;28;20051;-71
2023/05/30 03:11:35;;;;;;;2.63;2.17;;;10.50;99.90;;;;;;4963629;28;20146;-61
2023/05/30 03:14:01;;;;;;;6.60;1.83;;;10.60;99.90;;;;;;4963571;28;20050;-63
2023/05/30 03:16:28;;;;;;;2.10;1.77;;;10.60;99.90;;;;;;4959100;28;20117;-61
2023/05/30 03:18:57;;;;;;;4.65;1.75;;;10.60;99.90;;;;;;4978858;28;20397;-63
2023/05/30 03:21:24;;;;;;;4.38;1.85;;;10.70;99.90;;;;;;4960091;28;20054;-68
2023/05/30 03:23:52;;;;;;;4.45;1.48;;;10.70;99.90;;;;;;4960230;28;20047;-61
2023/05/30 03:26:23;;;;;;;3.22;1.38;;;10.80;99.90;;;;;;4959473;28;20170;-62
2023/05/30 03:28:50;;;;;;;5.25;1.80;;;10.80;99.90;;;;;;4962238;28;20071;-66
2023/05/30 03:31:22;;;;;;;3.63;1.63;;;10.90;99.90;;;;;;4963823;28;20413;-72
2023/05/30 03:33:49;;;;;;;3.47;1.75;;;11.00;99.90;;;;;;4962663;28;20071;-60
2023/05/30 03:36:18;;;;;;;6.05;1.88;;;11.00;99.90;;;;;;4963814;28;20069;-66
2023/05/30 03:38:45;;;;;;;3.67;1.77;;;11.00;99.90;;;;;;4964472;28;20066;-62
2023/05/30 03:41:12;;;;;;;3.30;1.25;;;11.00;99.90;;;;;;4961514;28;20133;-64
2023/05/30 03:43:39;;;;;;;3.00;1.50;;;11.00;99.90;;;;;;4978037;28;20059;-65
2023/05/30 03:46:06;;;;;;;3.58;2.05;;;11.10;99.90;;;;;;4960868;28;20055;-62
2023/05/30 03:48:33;;;;;;;6.10;2.03;;;11.10;99.90;;;;;;4962957;28;20773;-65
2023/05/30 03:51:00;;;;;;;2.30;0.95;;;11.10;99.90;;;;;;4961231;28;20043;-62
2023/05/30 03:53:27;;;;;;;3.78;1.70;;;11.10;99.90;;;;;;4963667;28;20119;-60
2023/05/30 03:55:55;;;;;;;5.93;2.30;;;11.10;99.90;;;;;;4979407;28;20055;-67
2023/05/30 03:58:22;;;;;;;3.97;1.85;;;11.10;99.90;;;;;;4962249;28;20109;-61
2023/05/30 04:00:49;;;;;;;2.55;1.70;;;11.10;99.90;;;;;;4961692;28;21008;-66
2023/05/30 04:03:19;;;;;;;2.15;1.30;;;11.20;99.90;;;;;;4965419;28;20651;-61
2023/05/30 04:05:47;;;;;;;5.45;2.80;;;11.20;99.90;;;;;;4977561;28;20097;-67
2023/05/30 04:08:15;;;;;;;4.43;2.22;;;11.20;99.90;;;;;;4963884;28;20054;-68
2023/05/30 04:10:42;;;;;;;2.88;1.83;;;11.20;99.90;;;;;;4966846;28;20051;-65
2023/05/30 04:13:09;;;;;;;4.00;1.65;;;11.30;99.90;;;;;;4962325;28;20050;-60
2023/05/30 04:15:37;;;;;;;3.53;1.77;;;11.30;99.90;;;;;;4964744;28;20050;-62
2023/05/30 04:18:04;;;;;;;2.88;1.10;;;11.30;99.90;;;;;;4965262;28;20505;-64
2023/05/30 04:20:31;;;;;;;5.75;1.88;;;11.40;99.90;;;;;;4963763;28;20054;-63
2023/05/30 04:22:58;;;;;;;3.17;1.73;;;11.40;99.90;;;;;;4964436;28;20051;-69
2023/05/30 04:25:25;;;;;;;4.10;1.42;;;11.40;99.90;;;;;;4981061;28;20536;-61
2023/05/30 04:27:53;;;;;;;5.15;1.73;;;11.40;99.90;;;;;;4967657;28;20878;-65
2023/05/30 04:30:20;;;;;;;4.70;1.70;;;11.40;99.90;;;;;;4963623;28;20416;-71
2023/05/30 04:32:48;;;;;;;2.83;1.60;;;11.50;99.90;;;;;;4981942;28;20058;-68
2023/05/30 04:35:16;;;;;;;5.45;1.70;;;11.50;99.90;;;;;;4979630;28;20113;-61
2023/05/30 04:37:45;;;;;;;2.72;1.55;;;11.60;99.90;;;;;;4965126;28;20081;-66
2023/05/30 04:40:13;;;;;;;;;;;11.50;99.90;;;;;;4980316;28;20856;-62
2023/05/30 04:42:41;;;;;;;2.40;1.58;;;11.50;99.90;;;;;;4966583;28;20541;-61
2023/05/30 04:45:10;;;;;;;4.13;1.20;;;11.60;99.90;;;;;;4960813;28;20086;-63
2023/05/30 04:47:38;;;;;;;3.35;1.10;;;11.70;99.90;;;;;;4965500;28;20050;-65
2023/05/30 04:50:06;;;;;;;5.38;1.27;;;11.70;99.90;;;;;;4965280;28;20055;-62
2023/05/30 04:52:33;;;;;;;2.17;1.05;;;11.70;99.90;;;;;;4979996;28;20058;-63
2023/05/30 04:55:00;;;;;;;5.07;1.65;;;11.70;99.90;;;;;;4966006;28;20679;-63
2023/05/30 04:57:27;;;;;;;3.88;1.23;;;11.80;99.90;;;;;;4958896;28;20062;-67
2023/05/30 04:59:55;;;;;;;7.15;1.60;;;11.80;99.90;;;;;;4956159;28;20134;-67
2023/05/30 05:02:23;;;;;;;4.85;1.73;;;11.80;99.90;;;;;;4954138;28;20053;-64
2023/05/30 05:04:51;;;;;;;2.67;1.20;;;11.90;99.90;;;;;;4960846;28;20055;-62
2023/05/30 05:07:18;;;;;;;3.75;1.70;;;11.90;99.90;;;;;;4967757;28;20642;-65
2023/05/30 05:10:04;;;;;;;2.38;1.30;;;11.90;99.90;;;;;;4964728;28;20182;-65
2023/05/30 05:12:31;;;;;;;4.35;1.52;;;11.90;99.90;;;;;;4963757;28;20910;-61
2023/05/30 05:14:58;;;;;;;3.67;1.60;;;12.00;99.90;;;;;;4964921;28;20047;-67
2023/05/30 05:17:25;;;;;;;3.92;1.02;;;12.00;99.90;;;;;;4960189;28;20137;-61
2023/05/30 05:19:52;;;;;;;2.28;1.65;;;12.00;99.90;;;;;;4963832;28;20050;-62
2023/05/30 05:22:18;;;;;;;3.85;1.35;;;12.00;99.90;;;;;;4964927;28;20413;-58
2023/05/30 05:24:45;;;;;;;4.90;1.23;;;12.00;99.90;;;;;;4963261;28;20696;-66
2023/05/30 05:27:13;;;;;;;3.88;1.25;;;12.00;99.90;;;;;;4967395;28;20078;-62
2023/05/30 05:29:40;;;;;;;4.63;1.35;;;12.00;99.90;;;;;;4968118;28;20051;-60
2023/05/30 05:32:08;;;;;;;6.78;2.15;;;12.10;99.90;;;;;;4964756;28;20050;-64
2023/05/30 05:34:35;;;;;;;2.47;1.35;;;12.10;99.90;;;;;;4963390;28;20053;-65
2023/05/30 05:37:02;;;;;;;3.90;1.73;;;12.10;99.90;;;;;;4966553;28;20096;-64
2023/05/30 05:39:29;;;;;;;6.30;1.38;;;12.10;99.90;;;;;;4963876;28;20501;-66
2023/05/30 05:41:56;;;;;;;3.10;1.42;;;12.10;99.90;;;;;;4967165;28;20094;-67
2023/05/30 05:44:23;;;;;;;6.93;1.30;;;12.10;99.90;;;;;;4963579;28;20057;-68
2023/05/30 05:46:50;;;;;;;9.10;2.15;;;12.10;99.90;;;;;;4966708;28;20082;-66
2023/05/30 05:49:17;;;;;;;3.08;0.93;;;12.10;99.90;;;;;;4964277;28;20528;-60
2023/05/30 05:51:44;;;;;;;4.30;1.02;;;12.20;99.90;;;;;;4962044;28;20062;-63
2023/05/30 05:54:11;;;;;;;5.35;1.05;;;12.20;99.90;;;;;;4962023;28;20046;-63
2023/05/30 05:56:38;;;;;;;1.55;0.80;;;12.30;99.90;;;;;;4963613;28;20051;-66
2023/05/30 05:59:05;;;;;;;7.05;1.10;;;12.30;99.90;;;;;;4964001;28;20053;-59
2023/05/30 06:01:32;;;;;;;5.63;1.45;;;12.40;99.90;;;;;;4966144;28;20481;-62
2023/05/30 06:04:01;;;;;;;3.83;1.13;;;12.40;99.90;;;;;;4979023;28;20066;-62
2023/05/30 06:06:28;;;;;;;2.90;1.10;;;12.40;99.90;;;;;;4959015;28;20051;-59
2023/05/30 06:08:56;;;;;;;9.20;0.90;;;12.50;99.90;;;;;;4961882;28;20121;-67
2023/05/30 06:11:23;;;;;;;1.58;0.90;;;12.50;99.90;;;;;;4963290;28;20141;-65
2023/05/30 06:13:50;;;;;;;3.70;0.70;;;12.60;99.90;;;;;;4965614;28;20082;-63
2023/05/30 06:16:16;;;;;;;3.28;1.60;;;12.60;99.90;;;;;;4960908;28;20078;-59
2023/05/30 06:18:43;;;;;;;10.75;2.35;;;12.60;99.90;;;;;;4963989;28;20121;-64
2023/05/30 06:21:10;;;;;;;6.72;1.25;;;12.50;99.90;;;;;;4962869;28;20222;-62
2023/05/30 06:23:37;;;;;;;7.78;1.88;;;12.40;99.90;;;;;;4961763;28;20062;-60
2023/05/30 06:26:04;;;;;;;5.05;1.70;;;12.40;99.90;;;;;;4962763;28;20078;-62
2023/05/30 06:28:31;;;;;;;3.20;1.45;;;12.40;99.90;;;;;;4961696;28;20195;-62
2023/05/30 06:30:58;;;;;;;8.05;1.85;;;12.30;99.90;;;;;;4964405;28;20039;-63
2023/05/30 06:33:25;;;;;;;6.63;1.52;;;12.30;99.90;;;;;;4963203;28;20053;-64
2023/05/30 06:35:52;;;;;;;5.07;2.10;;;12.20;99.90;;;;;;4962646;28;20145;-64
2023/05/30 06:38:20;;;;;;;8.32;2.03;;;12.20;99.90;;;;;;4963472;28;20113;-60
2023/05/30 06:40:47;;;;;;;3.35;1.45;;;12.20;99.90;;;;;;4959784;28;20098;-60
2023/05/30 06:43:14;;;;;;;6.63;2.67;;;12.20;99.90;;;;;;4961759;28;20055;-62
2023/05/30 06:45:41;;;;;;;9.02;2.17;;;12.20;99.90;;;;;;4964596;28;20113;-63
2023/05/30 06:48:07;;;;;;;9.02;1.92;;;12.10;99.90;;;;;;4962373;28;20051;-63
2023/05/30 06:50:35;;;;;;;5.97;3.00;;;12.10;99.90;;;;;;4958772;28;20058;-62
2023/05/30 06:53:02;;;;;;;7.03;2.30;;;12.10;99.90;;;;;;4963643;28;20117;-71
2023/05/30 06:55:29;;;;;;;15.48;2.38;;;12.10;99.90;;;;;;4960298;28;20063;-69
2023/05/30 06:57:56;;;;;;;7.13;2.47;;;12.10;99.90;;;;;;4964738;28;20148;-66
2023/05/30 07:00:23;;;;;;;7.95;2.40;;;12.10;99.90;;;;;;4960846;28;20105;-60
2023/05/30 07:02:50;;;;;;;8.70;1.48;;;12.20;99.90;;;;;;4963831;28;20051;-64
2023/05/30 07:05:17;;;;;;;7.22;1.52;;;12.10;99.90;;;;;;4961391;28;20082;-62
2023/05/30 07:07:45;;;;;;;4.00;1.50;;;12.10;99.90;;;;;;4964212;28;20468;-61
2023/05/30 07:10:12;;;;;;;4.90;1.65;;;12.10;99.90;;;;;;4962071;28;20146;-65
2023/05/30 07:12:39;;;;;;;8.68;1.65;;;12.10;99.90;;;;;;4963505;28;20113;-61
2023/05/30 07:15:07;;;;;;;10.98;3.10;;;12.00;99.90;;;;;;4962929;28;20141;-63
2023/05/30 07:17:34;;;;;;;9.00;2.10;;;12.00;99.90;;;;;;4964082;28;20070;-63
2023/05/30 07:20:02;;;;;;;9.57;3.83;;;12.00;99.90;;;;;;4961238;28;20051;-62
2023/05/30 07:22:29;;;;;;;13.75;2.40;;;12.00;99.90;;;;;;4963211;28;20042;-68
2023/05/30 07:24:55;;;;;;;6.22;1.42;;;12.10;99.90;;;;;;4962646;28;20046;-66
2023/05/30 07:27:23;;;;;;;6.28;2.30;;;12.10;99.90;;;;;;4965735;28;20054;-60
2023/05/30 07:29:50;;;;;;;6.72;1.52;;;12.20;99.90;;;;;;4961261;28;20066;-62
2023/05/30 07:32:17;;;;;;;5.95;1.55;;;12.20;99.90;;;;;;4962247;28;20062;-68
2023/05/30 07:34:44;;;;;;;7.30;2.47;;;12.30;99.90;;;;;;4961583;28;20129;-63
2023/05/30 07:37:11;;;;;;;9.00;2.50;;;12.20;99.90;;;;;;4971548;28;20465;-64
2023/05/30 07:39:38;;;;;;;8.02;2.75;;;12.10;99.90;;;;;;4965613;28;20081;-68
2023/05/30 07:42:06;;;;;;;6.78;2.00;;;12.10;99.90;;;;;;4966308;28;20051;-63
2023/05/30 07:44:33;;;;;;;6.88;1.83;;;12.10;99.90;;;;;;4967259;28;20062;-63
2023/05/30 07:47:00;;;;;;;6.70;2.85;;;12.10;99.90;;;;;;4964478;28;20059;-63
2023/05/30 07:49:27;;;;;;;5.55;1.65;;;12.20;99.90;;;;;;4965371;28;20126;-64
2023/05/30 07:51:54;;;;;;;8.27;2.63;;;12.20;99.90;;;;;;4968107;28;20453;-62
2023/05/30 07:54:21;;;;;;;5.18;1.73;;;12.30;99.90;;;;;;4965748;28;20137;-64
2023/05/30 07:56:48;;;;;;;12.50;1.90;;;12.30;99.90;;;;;;4969772;28;20058;-69
2023/05/30 07:59:15;;;;;;;7.10;2.17;;;12.30;99.90;;;;;;4983010;28;20086;-60
2023/05/30 08:01:41;;;;;;;4.43;2.00;;;12.20;99.90;;;;;;4967117;28;20367;-65
2023/05/30 08:04:08;;;;;;;6.45;1.65;;;12.30;99.90;;;;;;4964673;28;20047;-65
2023/05/30 08:06:36;;;;;;;5.85;2.25;;;12.30;99.90;;;;;;4968496;28;20051;-59
2023/05/30 08:09:04;;;;;;;9.95;2.25;;;12.20;99.90;;;;;;4967290;28;20046;-65
2023/05/30 08:11:31;;;;;;;11.05;2.42;;;12.30;99.90;;;;;;4965474;28;20101;-59
2023/05/30 08:13:57;;;;;;;7.40;2.58;;;12.20;99.90;;;;;;4966539;28;20046;-63
2023/05/30 08:16:26;;;;;;;7.68;2.22;;;12.20;99.90;;;;;;4965674;28;20141;-63
2023/05/30 08:18:53;;;;;;;4.38;2.20;;;12.20;99.90;;;;;;4968853;28;20452;-66
2023/05/30 08:21:20;;;;;;;4.35;2.15;;;12.20;99.90;;;;;;4966027;28;20165;-61
2023/05/30 08:23:47;;;;;;;5.22;1.90;;;12.30;99.90;;;;;;4965396;28;20058;-62
2023/05/30 08:26:15;;;;;;;4.22;1.83;;;12.30;99.90;;;;;;4964838;28;20117;-62
2023/05/30 08:28:42;;;;;;;5.93;1.33;;;12.40;99.90;;;;;;4967438;28;20062;-60
2023/05/30 08:31:09;;;;;;;7.22;1.73;;;12.40;99.90;;;;;;4965119;28;20082;-67
2023/05/30 08:33:36;;;;;;;3.58;1.42;;;12.40;99.90;;;;;;4967886;28;20101;-66
2023/05/30 08:36:03;;;;;;;10.27;2.22;;;12.50;99.90;;;;;;4961927;28;20112;-60
2023/05/30 08:38:31;;;;;;;5.30;3.40;;;12.50;99.90;;;;;;4965213;28;20443;-69
2023/05/30 08:40:58;;;;;;;2.42;1.52;;;12.40;99.90;;;;;;4965981;28;20043;-59
2023/05/30 08:43:25;;;;;;;5.50;2.13;;;12.40;99.90;;;;;;4965208;28;20059;-60
2023/05/30 08:45:53;;;;;;;3.92;2.00;;;12.50;99.90;;;;;;4965177;28;20141;-63
2023/05/30 08:48:28;;;;;;;6.10;2.00;;;12.50;99.90;;;;;;4964282;28;20092;-63
2023/05/30 08:50:56;;;;;;;7.60;2.33;;;12.50;99.90;;;;;;4964281;28;20083;-67
2023/05/30 08:53:35;;;;;;;6.75;2.63;;;12.50;99.90;;;;;;4962561;28;20084;-62
2023/05/30 08:56:07;;;;;;;12.15;3.30;;;12.60;99.90;;;;;;4964499;28;20813;-65
2023/05/30 08:58:39;;;;;;;5.18;2.65;;;12.70;99.90;;;;;;4963002;28;20057;-61
2023/05/30 09:01:09;;;;;;;7.28;2.13;;;12.60;99.90;;;;;;4966577;28;20078;-60
2023/05/30 09:03:42;;;;;;;6.18;1.42;;;12.60;99.90;;;;;;4966473;28;20050;-62
2023/05/30 09:06:14;;;;;;;5.35;1.70;;;12.60;99.90;;;;;;4963110;28;20580;-64
2023/05/30 09:08:45;;;;;;;7.28;1.88;;;12.50;99.90;;;;;;4965660;28;20054;-62
2023/05/30 09:11:15;;;;;;;7.53;1.77;;;12.50;99.90;;;;;;4965216;28;20146;-64
2023/05/30 09:13:43;;;;;;;6.87;2.10;;;12.60;99.90;;;;;;4965753;28;20697;-66
2023/05/30 09:16:10;;;;;;;4.82;1.92;;;12.70;99.90;;;;;;4962197;28;20284;-61
2023/05/30 09:18:37;;;;;;;9.20;2.28;;;12.60;99.90;;;;;;4965252;28;20054;-64
2023/05/30 09:21:05;;;;;;;10.80;3.08;;;12.60;99.90;;;;;;4963659;28;20078;-61
2023/05/30 09:23:32;;;;;;;7.75;2.38;;;12.70;99.90;;;;;;4963882;28;20074;-63
2023/05/30 09:26:00;;;;;;;4.97;2.03;;;12.60;99.90;;;;;;4964180;28;20457;-64
2023/05/30 09:28:28;;;;;;;5.70;2.17;;;12.60;99.90;;;;;;4963578;28;20051;-62
2023/05/30 09:31:00;;;;;;;4.85;1.48;;;12.60;99.90;;;;;;4964901;28;20154;-65
2023/05/30 09:33:47;;;;;;;3.83;1.45;;;12.70;99.90;;;;;;4965514;28;20047;-64
2023/05/30 09:36:19;;;;;;;6.50;2.30;;;12.80;99.90;;;;;;4962096;28;20062;-66
2023/05/30 09:39:03;;;;;;;9.30;3.40;;;13.00;99.90;;;;;;4965913;28;20069;-61
2023/05/30 09:41:32;;;;;;;6.13;1.50;;;13.00;99.90;;;;;;4963306;28;20137;-61
2023/05/30 09:44:03;;;;;;;4.47;2.00;;;13.00;99.90;;;;;;4965485;28;20077;-65
2023/05/30 09:46:30;;;;;;;5.13;1.77;;;12.80;99.90;;;;;;4961731;28;20049;-69
2023/05/30 09:48:58;;;;;;;6.07;1.73;;;13.00;99.90;;;;;;4965266;28;20058;-70
2023/05/30 09:51:25;;;;;;;4.07;1.90;;;12.90;99.90;;;;;;4963122;28;20053;-60
2023/05/30 09:54:12;;;;;;;4.38;1.60;;;13.00;99.90;;;;;;4965470;28;20054;-61
2023/05/30 09:56:41;;;;;;;6.88;1.40;;;13.10;99.90;;;;;;4962070;28;20493;-58
2023/05/30 09:59:13;;;;;;;3.60;2.17;;;13.10;99.90;;;;;;4966554;28;20043;-61
2023/05/30 10:01:46;;;;;;;4.85;1.50;;;12.80;99.90;;;;;;4963737;28;20063;-62
2023/05/30 10:04:17;;;;;;;4.05;1.73;;;12.90;99.90;;;;;;4961764;28;20467;-62
2023/05/30 10:06:46;;;;;;;9.05;2.60;;;13.00;99.90;;;;;;4960834;28;20149;-65
2023/05/30 10:09:14;;;;;;;4.78;1.65;;;13.00;99.90;;;;;;4964386;28;20125;-61
2023/05/30 10:11:43;;;;;;;6.72;1.60;;;13.10;99.90;;;;;;4961900;28;20563;-60
2023/05/30 10:14:11;;;;;;;6.25;1.50;;;13.00;99.90;;;;;;4962495;28;20047;-62
2023/05/30 10:16:47;;;;;;;6.28;1.33;;;13.10;99.90;;;;;;4978630;28;20077;-58
2023/05/30 10:19:29;;;;;;;4.95;1.60;;;13.00;99.90;;;;;;4961127;28;20062;-60
2023/05/30 10:21:58;;;;;;;5.15;1.50;;;12.80;99.90;;;;;;4964206;28;20046;-63
2023/05/30 10:24:27;;;;;;;7.80;1.75;;;13.00;99.90;;;;;;4964097;28;20167;-64
2023/05/30 10:26:56;;;;;;;4.10;1.10;;;13.20;99.90;;;;;;4964904;28;20046;-62
2023/05/30 10:29:28;;;;;;;3.50;1.25;;;13.20;99.90;;;;;;4965207;28;20145;-66
2023/05/30 10:31:58;;;;;;;8.05;1.48;;;13.30;99.90;;;;;;4964172;28;20689;-60
2023/05/30 10:34:41;;;;;;;4.10;1.65;;;13.10;99.90;;;;;;4959463;28;21104;-69
2023/05/30 10:37:09;;;;;;;4.40;1.40;;;13.20;99.90;;;;;;4975536;28;20231;-61
2023/05/30 10:39:36;;;;;;;5.32;1.50;;;13.30;99.90;;;;;;4964601;28;20081;-64
2023/05/30 10:42:43;;;;;;;9.07;2.40;;;13.30;99.90;;;;;;4964052;28;20051;-68
2023/05/30 10:45:20;;;;;;;5.30;1.45;;;13.30;99.90;;;;;;4960630;28;20114;-61
2023/05/30 10:48:22;;;;;;;5.65;2.10;;;13.30;99.90;;;;;;4953805;28;20140;-72
2023/05/30 10:50:54;;;;;;;3.95;1.70;;;13.50;99.90;;;;;;4966042;28;20516;-68
2023/05/30 10:53:21;;;;;;;7.05;1.50;;;13.50;99.90;;;;;;4964632;28;20149;-61
2023/05/30 10:55:49;;;;;;;5.68;1.80;;;13.30;99.90;;;;;;4965245;28;20050;-61
2023/05/30 10:58:41;;;;;;;4.25;1.50;;;13.20;99.90;;;;;;4964140;28;20074;-63
2023/05/30 11:01:32;;;;;;;9.23;1.55;;;13.20;99.90;;;;;;4963844;28;20047;-60
2023/05/30 11:04:11;;;;;;;4.68;1.17;;;13.20;99.90;;;;;;4965914;28;20145;-62
2023/05/30 11:06:42;;;;;;;4.43;2.10;;;13.40;99.90;;;;;;4959009;28;20062;-65
2023/05/30 11:09:15;;;;;;;4.75;1.70;;;13.50;99.90;;;;;;4961950;28;20288;-63
2023/05/30 11:11:44;;;;;;;2.42;1.42;;;13.60;99.90;;;;;;4961214;28;20047;-62
2023/05/30 11:14:12;;;;;;;7.82;1.67;;;13.80;99.90;;;;;;4961700;28;20130;-64
2023/05/30 11:16:54;;;;;;;2.40;1.52;;;13.30;99.90;;;;;;4961106;28;20058;-61
2023/05/30 11:19:48;;;;;;;10.55;3.13;;;13.20;99.90;;;;;;4964554;28;20084;-65
2023/05/30 11:22:22;;;;;;;6.15;1.17;;;13.30;99.90;;;;;;4961599;28;20057;-62
2023/05/30 11:25:19;;;;;;;4.25;1.58;;;13.40;99.90;;;;;;4963834;28;20129;-63
2023/05/30 11:28:03;;;;;;;4.53;1.35;;;13.70;99.90;;;;;;4961543;28;20149;-68
2023/05/30 11:30:33;;;;;;;4.55;2.67;;;13.70;99.90;;;;;;4959510;28;20161;-60
2023/05/30 11:33:00;;;;;;;6.07;1.80;;;13.90;99.90;;;;;;4962905;28;20517;-69
2023/05/30 11:35:28;;;;;;;4.38;1.85;;;14.10;99.90;;;;;;4961221;28;20767;-63
2023/05/30 11:37:56;;;;;;;6.28;1.52;;;14.10;99.90;;;;;;4962894;28;20053;-64
2023/05/30 11:40:24;;;;;;;3.10;1.83;;;14.20;99.90;;;;;;4961720;28;20497;-63
2023/05/30 11:42:52;;;;;;;4.82;2.00;;;14.20;99.90;;;;;;4964315;28;20047;-68
2023/05/30 11:45:23;;;;;;;6.60;2.00;;;13.60;99.90;;;;;;4962754;28;20532;-61
2023/05/30 11:47:51;;;;;;;4.82;1.85;;;13.90;99.90;;;;;;4965794;28;20133;-64
2023/05/30 11:50:19;;;;;;;2.30;1.50;;;14.10;99.90;;;;;;4961597;28;20754;-61
2023/05/30 11:52:46;;;;;;;4.68;1.58;;;14.20;99.90;;;;;;4963615;28;20097;-59
2023/05/30 11:55:14;;;;;;;4.85;1.85;;;14.10;99.90;;;;;;4963056;28;20097;-59
2023/05/30 11:57:41;;;;;;;4.30;1.60;;;14.00;99.90;;;;;;4963795;28;20477;-59
2023/05/30 12:00:11;;;;;;;5.03;2.00;;;14.10;99.90;;;;;;4961444;28;20560;-62
2023/05/30 12:02:40;;;;;;;4.80;1.80;;;14.30;99.90;;;;;;4963527;28;20082;-63
2023/05/30 12:05:08;;;;;;;2.85;1.30;;;14.60;99.90;;;;;;4960751;28;20113;-60
2023/05/30 12:07:35;;;;;;;6.47;2.55;;;14.60;99.40;;;;;;4963291;28;20046;-62
2023/05/30 12:10:02;;;;;;;4.13;1.38;;;14.50;99.90;;;;;;4963863;28;20057;-60
2023/05/30 12:12:30;;;;;;;6.40;2.65;;;14.50;99.90;;;;;;4962919;28;20051;-61
2023/05/30 12:15:03;;;;;;;3.10;1.33;;;14.50;99.90;;;;;;4980752;28;20105;-65
2023/05/30 12:17:30;;;;;;;3.63;1.45;;;14.60;99.90;;;;;;4963354;28;20458;-66
2023/05/30 12:19:59;;;;;;;3.33;1.48;;;14.50;98.60;;;;;;4960961;28;20059;-64
2023/05/30 12:22:32;;;;;;;7.80;1.97;;;14.00;99.20;;;;;;4962041;28;20062;-67
2023/05/30 12:25:05;;;;;;;2.10;1.10;;;14.20;99.90;;;;;;4964671;28;20047;-66
2023/05/30 12:27:32;;;;;;;4.22;2.10;;;14.40;99.90;;;;;;4964218;28;20090;-61
2023/05/30 12:30:19;;;;;;;4.55;1.70;;;14.40;99.60;;;;;;4961824;28;20050;-59
2023/05/30 12:32:46;;;;;;;8.27;1.80;;;14.40;99.00;;;;;;4965389;28;20047;-60
2023/05/30 12:35:14;;;;;;;6.40;1.30;;;14.30;98.70;;;;;;4965926;28;20066;-61
2023/05/30 12:37:42;;;;;;;8.13;2.60;;;14.30;98.60;;;;;;4966335;28;20051;-64
2023/05/30 12:40:09;;;;;;;4.15;1.92;;;14.20;98.40;;;;;;4966810;28;20057;-65
2023/05/30 12:42:36;;;;;;;8.00;1.70;;;14.40;99.10;;;;;;4967164;28;20100;-59
2023/05/30 12:45:05;;;;;;;8.75;1.83;;;14.60;98.70;;;;;;4968290;28;20058;-60
2023/05/30 12:47:35;;;;;;;2.90;1.98;;;14.40;97.80;;;;;;4967349;28;20161;-65
2023/05/30 12:50:02;;;;;;;4.13;1.93;;;14.50;97.60;;;;;;4964063;28;20496;-65
2023/05/30 12:52:29;;;;;;;3.45;1.00;;;14.40;97.80;;;;;;4965151;28;20497;-65
2023/05/30 12:54:56;;;;;;;6.20;1.63;;;14.00;97.70;;;;;;4965019;28;20042;-67
2023/05/30 12:57:25;;;;;;;4.32;1.33;;;14.20;96.80;;;;;;4967053;28;20058;-60
2023/05/30 12:59:53;;;;;;;4.40;2.20;;;14.50;97.60;;;;;;4965561;28;20824;-63